Aspermont, Texas
Current Conditions -  °F | °C
As of 9:15 AM on Thursday 30 Oct 2014 (Local Time) from KSWW Reporting Station
Clear Clear  
Wind Chill: 62°   Ceiling: Unl
Heat Index: 62°   Visibility: 10mi
Dew Point: 57°   Wind: 12mph
Humidity: 84%   Direction: 180°S
Pressure: 30.16"   Gusts: NA
Location:  33.13°N, 100.23°W
Report Text: KSWW 301415Z AUTO 18010KT 10SM CLR 17/14 A3016 RMK AO2 T01690141
Loading
Personal Weather Stations






























Interactive Weather Map
Tropical Storm Tracking
New forecast layout! Learn more

10-Day Weather Forecast

Advertisements
Track Severe Weather on mobile